Richville, Minnesota
Current Conditions -  °F | °C
As of 6:53 PM on Friday 19 Dec 2014 (Local Time) from KADC Reporting Station
Haze Haze  
Wind Chill: 23°   Ceiling: 400
Heat Index: 28°   Visibility: 3mi
Dew Point: 27°   Wind: 5mph
Humidity: 93%   Direction: 180°S
Pressure: 30.07"   Gusts: NA
Location:  46.51°N, 95.63°W
Report Text: KADC 200053Z AUTO 18004KT 3SM BR OVC004 M02/M03 A3007 RMK AO2
Loading
Personal Weather Stations






























Interactive Weather Map New forecast layout! Learn more

10-Day Weather Forecast

Advertisements
Track Severe Weather on mobile